createdAt,value
2019-04-10T00:01:34.119Z,17.69
2019-04-10T00:04:07.546Z,17.60
2019-04-10T00:06:37.754Z,17.57
2019-04-10T00:09:08.697Z,17.60
2019-04-10T00:11:39.022Z,17.52
2019-04-10T00:14:10.299Z,17.58
2019-04-10T00:16:40.554Z,17.49
2019-04-10T00:19:10.721Z,17.33
2019-04-10T00:21:42.086Z,17.43
2019-04-10T00:24:13.566Z,17.47
2019-04-10T00:26:46.211Z,17.38
2019-04-10T00:29:18.879Z,17.24
2019-04-10T00:31:51.557Z,17.22
2019-04-10T00:34:23.370Z,17.12
2019-04-10T00:36:55.457Z,17.22
2019-04-10T00:39:28.602Z,17.13
2019-04-10T00:41:59.414Z,16.99
2019-04-10T00:44:30.162Z,16.92
2019-04-10T00:47:00.304Z,16.95
2019-04-10T00:49:31.543Z,17.04
2019-04-10T00:52:03.909Z,17.11
2019-04-10T00:54:35.263Z,16.98
2019-04-10T00:57:07.371Z,16.89
2019-04-10T00:59:38.345Z,16.83
2019-04-10T01:02:12.199Z,16.73
2019-04-10T01:04:42.851Z,16.62
2019-04-10T01:07:14.784Z,16.87
2019-04-10T01:09:45.872Z,16.90
2019-04-10T01:12:19.493Z,16.74
2019-04-10T01:14:50.387Z,16.75
2019-04-10T01:17:22.252Z,16.77
2019-04-10T01:19:54.487Z,16.60
2019-04-10T01:22:25.930Z,16.69
2019-04-10T01:24:57.794Z,16.50
2019-04-10T01:27:28.814Z,16.59
2019-04-10T01:30:02.448Z,16.48
2019-04-10T01:32:34.835Z,16.32
2019-04-10T01:35:07.882Z,16.31
2019-04-10T01:37:48.760Z,16.40
2019-04-10T01:40:10.768Z,16.27
2019-04-10T01:42:43.173Z,16.29
2019-04-10T01:45:13.890Z,16.23
2019-04-10T01:47:45.597Z,16.23
2019-04-10T01:50:18.052Z,16.14
2019-04-10T01:52:49.666Z,16.08
2019-04-10T01:55:26.655Z,16.13
2019-04-10T01:57:54.719Z,16.12
2019-04-10T02:00:26.306Z,16.06
2019-04-10T02:02:57.948Z,16.12
2019-04-10T02:05:30.317Z,15.92
2019-04-10T02:08:08.599Z,15.85
2019-04-10T02:10:36.340Z,15.94
2019-04-10T02:13:07.430Z,15.88
2019-04-10T02:15:38.915Z,15.81
2019-04-10T02:18:09.569Z,15.84
2019-04-10T02:20:40.285Z,15.94
2019-04-10T02:23:12.199Z,15.83
2019-04-10T02:25:43.602Z,15.94
2019-04-10T02:28:15.551Z,15.94
2019-04-10T02:30:47.935Z,15.81
2019-04-10T02:33:19.760Z,15.84
2019-04-10T02:35:50.799Z,15.82
2019-04-10T02:38:38.998Z,15.89
2019-04-10T02:40:53.298Z,15.82
2019-04-10T02:43:23.806Z,15.77
2019-04-10T02:45:55.908Z,15.75
2019-04-10T02:48:27.558Z,15.49
2019-04-10T02:50:59.652Z,15.49
2019-04-10T02:53:31.654Z,15.65
2019-04-10T02:56:03.095Z,15.64
2019-04-10T02:58:34.356Z,15.64
2019-04-10T03:01:07.005Z,15.61
2019-04-10T03:03:38.452Z,15.66
2019-04-10T03:06:10.014Z,15.65
2019-04-10T03:08:59.237Z,15.60
2019-04-10T03:11:24.388Z,15.58
2019-04-10T03:13:55.628Z,15.59
2019-04-10T03:16:27.310Z,15.49
2019-04-10T03:18:57.771Z,15.41
2019-04-10T03:21:29.338Z,15.41
2019-04-10T03:24:00.629Z,15.23
2019-04-10T03:26:32.057Z,15.30
2019-04-10T03:29:03.225Z,15.15
2019-04-10T03:31:36.901Z,15.23
2019-04-10T03:34:38.885Z,15.28
2019-04-10T03:37:08.030Z,15.12
2019-04-10T03:39:40.512Z,15.02
2019-04-10T03:42:12.519Z,14.98
2019-04-10T03:44:45.244Z,14.84
2019-04-10T03:47:17.926Z,14.77
2019-04-10T03:49:49.832Z,14.78
2019-04-10T03:52:21.516Z,14.86
2019-04-10T03:54:55.258Z,14.77
2019-04-10T03:57:26.794Z,14.84
2019-04-10T03:59:58.184Z,14.84
2019-04-10T04:02:31.537Z,14.95
2019-04-10T04:05:04.407Z,14.78
2019-04-10T04:07:36.926Z,14.85
2019-04-10T04:10:07.217Z,14.72
2019-04-10T04:12:37.382Z,14.78
2019-04-10T04:15:09.421Z,14.80
2019-04-10T04:17:40.144Z,14.67
2019-04-10T04:20:11.212Z,14.68
2019-04-10T04:22:41.844Z,14.55
2019-04-10T04:25:12.894Z,14.55
2019-04-10T04:27:44.241Z,14.40
2019-04-10T04:30:17.006Z,14.42
2019-04-10T04:32:48.380Z,14.44
2019-04-10T04:35:24.253Z,14.52
2019-04-10T04:37:56.011Z,14.40
2019-04-10T04:40:27.910Z,14.27
2019-04-10T04:43:00.159Z,13.74
2019-04-10T04:45:30.787Z,14.12
2019-04-10T04:48:01.903Z,14.08
2019-04-10T04:50:34.097Z,14.10
2019-04-10T04:53:07.245Z,14.09
2019-04-10T04:55:37.446Z,14.02
2019-04-10T04:58:09.610Z,14.14
2019-04-10T05:00:40.269Z,13.77
2019-04-10T05:03:11.981Z,14.03
2019-04-10T05:05:43.137Z,13.98
2019-04-10T05:08:15.310Z,14.07
2019-04-10T05:10:47.451Z,14.13
2019-04-10T05:13:18.115Z,14.12
2019-04-10T05:15:49.926Z,14.07
2019-04-10T05:18:21.215Z,13.96
2019-04-10T05:20:52.642Z,14.04
2019-04-10T05:23:24.391Z,14.11
2019-04-10T05:25:56.160Z,14.07
2019-04-10T05:28:28.548Z,14.15
2019-04-10T05:30:59.568Z,14.15
2019-04-10T05:33:31.735Z,14.14
2019-04-10T05:36:04.737Z,14.07
2019-04-10T05:38:35.757Z,14.12
2019-04-10T05:41:09.131Z,14.14
2019-04-10T05:43:40.799Z,14.10
2019-04-10T05:46:12.426Z,14.16
2019-04-10T05:48:44.132Z,14.20
2019-04-10T05:51:15.079Z,14.05
2019-04-10T05:53:47.323Z,14.13
2019-04-10T05:56:20.689Z,14.01
2019-04-10T05:58:51.405Z,14.11
2019-04-10T06:01:33.225Z,14.14
2019-04-10T06:03:54.592Z,14.16
2019-04-10T06:06:25.293Z,14.17
2019-04-10T06:08:59.082Z,14.08
2019-04-10T06:11:29.274Z,14.27
2019-04-10T06:14:01.148Z,14.19
2019-04-10T06:16:32.252Z,14.31
2019-04-10T06:19:03.957Z,14.35
2019-04-10T06:21:34.102Z,14.36
2019-04-10T06:24:05.802Z,14.12
2019-04-10T06:26:37.568Z,14.25
2019-04-10T06:29:08.637Z,14.36
2019-04-10T06:31:39.119Z,14.47
2019-04-10T06:34:09.449Z,14.33
2019-04-10T06:36:41.718Z,14.47
2019-04-10T06:39:14.105Z,14.60
2019-04-10T06:41:44.577Z,14.59
2019-04-10T06:44:15.222Z,14.40
2019-04-10T06:46:46.584Z,14.39
2019-04-10T06:49:17.831Z,14.05
2019-04-10T06:51:49.312Z,14.28
2019-04-10T06:54:23.225Z,14.34
2019-04-10T06:56:54.548Z,14.24
2019-04-10T06:59:26.537Z,14.41
2019-04-10T07:02:01.311Z,14.35
2019-04-10T07:04:28.569Z,14.35
2019-04-10T07:07:08.768Z,14.20
2019-04-10T07:09:37.839Z,14.60
2019-04-10T07:12:08.105Z,14.66
2019-04-10T07:14:45.551Z,14.91
2019-04-10T07:17:14.523Z,14.80
2019-04-10T07:19:47.455Z,14.98
2019-04-10T07:22:17.803Z,15.19
2019-04-10T07:24:54.420Z,15.26
2019-04-10T07:27:26.323Z,15.09
2019-04-10T07:29:59.779Z,15.00
2019-04-10T07:32:31.071Z,15.24
2019-04-10T07:35:03.280Z,15.38
2019-04-10T07:37:36.205Z,15.35
2019-04-10T07:40:10.243Z,15.25
2019-04-10T07:42:43.304Z,15.38
2019-04-10T07:45:14.970Z,15.29
2019-04-10T07:47:46.241Z,15.22
2019-04-10T07:50:18.353Z,15.28
2019-04-10T07:52:48.619Z,15.38
2019-04-10T07:55:21.092Z,15.55
2019-04-10T07:57:53.213Z,15.67
2019-04-10T08:00:25.085Z,15.60
2019-04-10T08:02:55.443Z,15.77
2019-04-10T08:05:27.238Z,15.85
2019-04-10T08:07:58.966Z,15.91
2019-04-10T08:10:30.753Z,15.80
2019-04-10T08:13:02.505Z,15.85
2019-04-10T08:15:33.662Z,15.95
2019-04-10T08:18:04.585Z,15.76
2019-04-10T08:20:35.286Z,16.08
2019-04-10T08:23:07.532Z,16.31
2019-04-10T08:25:40.942Z,16.03
2019-04-10T08:28:12.528Z,16.16
2019-04-10T08:30:43.950Z,16.12
2019-04-10T08:33:14.233Z,16.19
2019-04-10T08:35:45.590Z,16.45
2019-04-10T08:38:17.276Z,16.60
2019-04-10T08:40:49.235Z,16.56
2019-04-10T08:43:20.206Z,16.48
2019-04-10T08:45:52.214Z,16.66
2019-04-10T08:48:24.004Z,16.83
2019-04-10T08:50:56.730Z,16.91
2019-04-10T08:53:28.659Z,16.77
2019-04-10T08:55:59.732Z,16.76
2019-04-10T08:58:30.766Z,16.91
2019-04-10T09:01:02.908Z,16.70
2019-04-10T09:03:33.062Z,16.80
2019-04-10T09:06:03.252Z,16.85
2019-04-10T09:08:37.178Z,16.92
2019-04-10T09:11:09.098Z,16.91
2019-04-10T09:13:40.970Z,17.03
2019-04-10T09:16:12.171Z,17.06
2019-04-10T09:18:42.755Z,17.14
2019-04-10T09:21:13.921Z,17.23
2019-04-10T09:23:51.753Z,17.34
2019-04-10T09:26:20.283Z,17.56
2019-04-10T09:28:50.851Z,17.78
2019-04-10T09:31:21.808Z,17.56
2019-04-10T09:33:51.983Z,17.88
2019-04-10T09:36:22.237Z,17.89
2019-04-10T09:38:53.565Z,18.10
2019-04-10T09:41:25.911Z,17.62
2019-04-10T09:43:56.333Z,18.29
2019-04-10T09:46:26.871Z,17.60
2019-04-10T09:48:57.012Z,17.94
2019-04-10T09:51:28.087Z,18.32
2019-04-10T09:53:59.242Z,18.71
2019-04-10T09:56:32.880Z,18.78
2019-04-10T09:59:03.192Z,18.28
2019-04-10T10:01:36.390Z,18.79
2019-04-10T10:04:11.487Z,18.91
2019-04-10T10:06:41.768Z,19.08
2019-04-10T10:09:12.668Z,19.11
2019-04-10T10:11:44.855Z,18.77
2019-04-10T10:14:15.502Z,19.28
2019-04-10T10:16:46.350Z,19.39
2019-04-10T10:19:16.503Z,19.38
2019-04-10T10:21:46.691Z,19.58
2019-04-10T10:24:16.977Z,19.65
2019-04-10T10:26:47.738Z,19.91
2019-04-10T10:29:22.134Z,19.95
2019-04-10T10:31:53.732Z,20.14
2019-04-10T10:34:24.693Z,20.06
2019-04-10T10:36:55.948Z,20.50
2019-04-10T10:39:27.013Z,19.86
2019-04-10T10:41:58.569Z,20.21
2019-04-10T10:44:30.167Z,19.92
2019-04-10T10:47:11.787Z,19.38
2019-04-10T10:49:42.748Z,19.38
2019-04-10T10:52:13.300Z,19.99
2019-04-10T10:54:43.576Z,20.89
2019-04-10T10:57:15.132Z,21.11
2019-04-10T10:59:46.132Z,21.56
2019-04-10T11:02:17.107Z,21.89
2019-04-10T11:04:49.118Z,22.22
2019-04-10T11:07:20.791Z,22.42
2019-04-10T11:09:52.932Z,22.69
2019-04-10T11:12:24.129Z,22.92
2019-04-10T11:14:56.989Z,23.03
2019-04-10T11:17:29.450Z,23.15
2019-04-10T11:20:00.058Z,23.20
2019-04-10T11:22:33.156Z,23.44
2019-04-10T11:25:06.014Z,23.55
2019-04-10T11:27:39.304Z,23.79
2019-04-10T11:30:12.361Z,23.74
2019-04-10T11:32:44.486Z,23.93
2019-04-10T11:35:17.422Z,24.08
2019-04-10T11:37:53.227Z,24.18
2019-04-10T11:40:27.641Z,24.60
2019-04-10T11:43:05.096Z,24.86
2019-04-10T11:45:43.136Z,24.61
2019-04-10T11:48:12.712Z,25.11
2019-04-10T11:50:44.527Z,25.13
2019-04-10T11:53:19.049Z,25.21
2019-04-10T11:55:53.086Z,25.50
2019-04-10T11:58:25.211Z,25.85
2019-04-10T12:00:58.052Z,25.82
2019-04-10T12:03:28.329Z,26.08
2019-04-10T12:05:59.837Z,26.19
2019-04-10T12:08:55.274Z,26.11
2019-04-10T12:13:36.582Z,26.31
2019-04-10T12:16:09.278Z,26.28
2019-04-10T12:18:40.631Z,26.61
2019-04-10T12:21:11.874Z,26.51
2019-04-10T12:23:47.345Z,26.43
2019-04-10T12:26:21.992Z,26.33
2019-04-10T12:28:54.392Z,26.36
2019-04-10T12:31:25.835Z,26.59
2019-04-10T12:33:57.131Z,27.13
2019-04-10T12:36:28.804Z,27.37
2019-04-10T12:39:03.703Z,27.60
2019-04-10T12:41:36.527Z,27.76
2019-04-10T12:44:07.922Z,27.96
2019-04-10T12:46:39.467Z,28.10
2019-04-10T12:49:09.772Z,28.13
2019-04-10T12:51:41.664Z,28.33
2019-04-10T12:54:13.212Z,28.18
2019-04-10T12:56:43.721Z,28.03
2019-04-10T12:59:15.287Z,27.81
2019-04-10T13:01:47.036Z,27.73
2019-04-10T13:04:18.027Z,27.82
2019-04-10T13:06:51.018Z,28.01
2019-04-10T13:09:22.132Z,28.06
2019-04-10T13:11:53.097Z,28.40
2019-04-10T13:14:24.428Z,28.65
2019-04-10T13:16:54.633Z,29.00
2019-04-10T13:19:24.932Z,28.97
2019-04-10T13:21:57.867Z,28.75
2019-04-10T13:24:30.355Z,28.97
2019-04-10T13:27:00.567Z,28.89
2019-04-10T13:29:32.227Z,29.15
2019-04-10T13:32:03.488Z,29.41
2019-04-10T13:34:33.666Z,29.81
2019-04-10T13:37:04.098Z,30.53
2019-04-10T13:39:36.965Z,30.92
2019-04-10T13:42:09.306Z,31.77
2019-04-10T13:44:42.781Z,32.01
2019-04-10T13:47:13.398Z,32.71
2019-04-10T13:49:44.199Z,33.16
2019-04-10T13:52:15.964Z,33.20
2019-04-10T13:54:47.195Z,34.17
2019-04-10T13:57:18.150Z,34.77
2019-04-10T13:59:49.082Z,35.18
2019-04-10T14:02:32.310Z,35.53
2019-04-10T14:05:05.274Z,36.25
2019-04-10T14:07:36.057Z,36.67
2019-04-10T14:10:10.518Z,37.21
2019-04-10T14:12:41.172Z,37.31
2019-04-10T14:15:13.921Z,37.33
2019-04-10T14:17:44.176Z,37.86
2019-04-10T14:20:17.321Z,36.42
2019-04-10T14:23:08.433Z,36.92
2019-04-10T14:26:18.451Z,37.37
2019-04-10T14:28:51.394Z,38.32
2019-04-10T14:31:34.701Z,38.19
2019-04-10T14:34:05.500Z,38.04
2019-04-10T14:36:38.068Z,37.98
2019-04-10T14:39:18.293Z,38.34
2019-04-10T14:41:46.974Z,38.40
2019-04-10T14:44:18.828Z,38.95
2019-04-10T14:46:49.694Z,38.57
2019-04-10T14:49:20.869Z,37.73
2019-04-10T14:51:52.395Z,37.84
2019-04-10T14:54:23.801Z,38.30
2019-04-10T14:56:54.604Z,37.98
2019-04-10T14:59:24.734Z,37.34
2019-04-10T15:01:56.458Z,35.62
2019-04-10T15:04:26.950Z,33.64
2019-04-10T15:06:57.584Z,32.56
2019-04-10T15:09:29.217Z,32.31
2019-04-10T15:12:00.434Z,31.28
2019-04-10T15:14:33.873Z,30.60
2019-04-10T15:17:04.797Z,30.28
2019-04-10T15:19:36.424Z,30.66
2019-04-10T15:22:07.688Z,30.63
2019-04-10T15:24:37.933Z,30.95
2019-04-10T15:27:09.640Z,31.54
2019-04-10T15:29:40.871Z,31.56
2019-04-10T15:32:12.780Z,30.71
2019-04-10T15:34:43.743Z,29.52
2019-04-10T15:37:15.213Z,28.07
2019-04-10T15:39:46.589Z,27.15
2019-04-10T15:42:21.768Z,25.95
2019-04-10T15:44:52.793Z,25.08
2019-04-10T15:47:23.506Z,25.16
2019-04-10T15:49:53.707Z,24.61
2019-04-10T15:52:24.372Z,24.05
2019-04-10T15:54:59.365Z,23.64
2019-04-10T15:57:44.253Z,23.19
2019-04-10T16:00:10.722Z,22.96
2019-04-10T16:02:44.792Z,22.58
2019-04-10T16:05:16.097Z,22.26
2019-04-10T16:07:46.928Z,21.85
2019-04-10T16:10:33.949Z,21.52
2019-04-10T16:13:10.848Z,21.27
2019-04-10T16:15:45.029Z,20.89
2019-04-10T16:18:18.970Z,20.60
2019-04-10T16:20:50.743Z,20.85
2019-04-10T16:23:40.104Z,20.75
2019-04-10T16:26:11.397Z,20.34
2019-04-10T16:28:43.133Z,20.29
2019-04-10T16:31:15.138Z,20.40
2019-04-10T16:33:45.594Z,20.19
2019-04-10T16:36:17.161Z,20.19
2019-04-10T16:38:47.458Z,20.05
2019-04-10T16:41:17.768Z,19.98
2019-04-10T16:43:52.795Z,19.90
2019-04-10T16:46:25.155Z,19.81
2019-04-10T16:48:56.706Z,19.67
2019-04-10T16:51:28.094Z,19.45
2019-04-10T16:53:58.739Z,19.24
2019-04-10T16:56:32.209Z,19.24
2019-04-10T16:59:08.764Z,19.28
2019-04-10T17:01:39.685Z,19.35
2019-04-10T17:04:11.235Z,19.31
2019-04-10T17:06:44.226Z,19.22
2019-04-10T17:09:19.131Z,19.15
2019-04-10T17:11:51.219Z,19.17
2019-04-10T17:14:23.832Z,19.08
2019-04-10T17:16:55.681Z,18.93
2019-04-10T17:19:28.879Z,18.89
2019-04-10T17:22:00.622Z,18.91
2019-04-10T17:24:31.396Z,18.75
2019-04-10T17:27:02.071Z,18.90
2019-04-10T17:29:39.048Z,18.67
2019-04-10T17:32:11.089Z,18.61
2019-04-10T17:34:43.088Z,18.55
2019-04-10T17:37:13.766Z,18.35
2019-04-10T17:39:45.211Z,18.44
2019-04-10T17:42:16.902Z,18.38
2019-04-10T17:44:49.779Z,18.21
2019-04-10T17:47:23.203Z,18.08
2019-04-10T17:49:53.947Z,18.12
2019-04-10T17:52:27.114Z,17.94
2019-04-10T17:55:00.951Z,17.99
2019-04-10T17:57:38.361Z,17.91
2019-04-10T18:00:09.208Z,17.74
2019-04-10T18:02:41.328Z,17.51
2019-04-10T18:05:12.661Z,17.59
2019-04-10T18:07:44.049Z,17.59
2019-04-10T18:10:16.114Z,17.65
2019-04-10T18:12:46.447Z,17.66
2019-04-10T18:15:17.663Z,17.68
2019-04-10T18:17:49.474Z,17.48
2019-04-10T18:20:19.983Z,17.38
2019-04-10T18:22:51.869Z,16.97
2019-04-10T18:25:22.260Z,17.08
2019-04-10T18:27:52.889Z,17.28
2019-04-10T18:30:24.825Z,17.24
2019-04-10T18:32:56.169Z,17.22
2019-04-10T18:35:27.437Z,17.11
2019-04-10T18:37:58.659Z,17.03
2019-04-10T18:40:30.041Z,17.12
2019-04-10T18:43:02.294Z,17.06
2019-04-10T18:45:35.616Z,16.62
2019-04-10T18:48:08.618Z,16.69
2019-04-10T18:50:40.606Z,16.79
2019-04-10T18:53:13.112Z,16.63
2019-04-10T18:55:44.812Z,16.69
2019-04-10T18:58:21.183Z,16.72
2019-04-10T19:01:13.181Z,16.64
2019-04-10T19:03:59.224Z,16.91
2019-04-10T19:06:36.269Z,16.84
2019-04-10T19:09:14.299Z,16.70
2019-04-10T19:11:41.538Z,16.57
2019-04-10T19:14:12.289Z,16.55
2019-04-10T19:16:43.659Z,16.72
2019-04-10T19:19:14.588Z,16.74
2019-04-10T19:21:46.136Z,16.62
2019-04-10T19:24:17.354Z,16.47
2019-04-10T19:26:48.086Z,16.53
2019-04-10T19:29:19.245Z,16.50
2019-04-10T19:31:54.133Z,16.68
2019-04-10T19:34:25.513Z,16.62
2019-04-10T19:36:56.378Z,16.40
2019-04-10T19:39:26.980Z,16.45
2019-04-10T19:41:57.675Z,16.23
2019-04-10T19:44:28.950Z,16.33
2019-04-10T19:47:02.076Z,16.18
2019-04-10T19:49:34.926Z,16.02
2019-04-10T19:52:06.489Z,15.93
2019-04-10T19:54:36.618Z,16.03
2019-04-10T19:57:07.585Z,15.89
2019-04-10T19:59:40.016Z,16.12
2019-04-10T20:02:11.427Z,16.00
2019-04-10T20:04:41.618Z,16.12
2019-04-10T20:07:13.088Z,16.04
2019-04-10T20:09:44.410Z,15.83
2019-04-10T20:12:16.257Z,15.83
2019-04-10T20:14:46.867Z,15.92
2019-04-10T20:17:19.813Z,15.76
2019-04-10T20:19:52.685Z,15.71
2019-04-10T20:22:27.953Z,15.83
2019-04-10T20:25:00.461Z,15.90
2019-04-10T20:27:32.141Z,15.90
2019-04-10T20:30:05.737Z,15.98
2019-04-10T20:32:38.611Z,16.08
2019-04-10T20:35:10.281Z,15.97
2019-04-10T20:37:42.964Z,16.04
2019-04-10T20:40:15.937Z,16.01
2019-04-10T20:42:48.707Z,15.84
2019-04-10T20:45:21.133Z,15.92
2019-04-10T20:47:52.827Z,15.64
2019-04-10T20:50:23.964Z,15.69
2019-04-10T20:52:55.833Z,15.81
2019-04-10T20:55:28.254Z,15.73
2019-04-10T20:58:00.238Z,15.80
2019-04-10T21:00:34.359Z,15.55
2019-04-10T21:03:07.122Z,15.36
2019-04-10T21:05:37.663Z,15.61
2019-04-10T21:08:09.430Z,15.47
2019-04-10T21:10:40.873Z,15.31
2019-04-10T21:13:12.946Z,15.25
2019-04-10T21:15:46.306Z,15.10
2019-04-10T21:18:19.680Z,15.14
2019-04-10T21:20:53.631Z,15.32
2019-04-10T21:23:25.123Z,15.22
2019-04-10T21:25:55.629Z,14.96
2019-04-10T21:28:26.022Z,15.24
2019-04-10T21:31:15.757Z,15.22
2019-04-10T21:34:11.957Z,15.02
2019-04-10T21:36:43.507Z,14.99
2019-04-10T21:39:13.874Z,14.96
2019-04-10T21:41:45.228Z,15.06
2019-04-10T21:44:16.124Z,14.91
2019-04-10T21:46:48.412Z,15.07
2019-04-10T21:49:20.623Z,15.04
2019-04-10T21:51:51.690Z,14.98
2019-04-10T21:54:24.522Z,15.09
2019-04-10T21:56:55.616Z,15.24
2019-04-10T21:59:26.866Z,14.97
2019-04-10T22:01:59.223Z,15.07
2019-04-10T22:04:30.958Z,15.13
2019-04-10T22:07:18.906Z,15.06
2019-04-10T22:10:01.527Z,15.12
2019-04-10T22:12:38.994Z,15.14
2019-04-10T22:15:06.574Z,15.18
2019-04-10T22:17:36.794Z,15.03
2019-04-10T22:20:09.629Z,15.02
2019-04-10T22:22:40.803Z,15.03
2019-04-10T22:25:13.119Z,14.89
2019-04-10T22:27:44.155Z,14.80
2019-04-10T22:30:15.168Z,14.86
2019-04-10T22:32:45.649Z,14.97
2019-04-10T22:35:19.445Z,14.88
2019-04-10T22:37:50.362Z,14.74
2019-04-10T22:40:21.514Z,14.64
2019-04-10T22:42:53.173Z,14.81
2019-04-10T22:45:30.981Z,14.76
2019-04-10T22:48:01.348Z,14.42
2019-04-10T22:50:32.901Z,14.66
2019-04-10T22:53:05.385Z,14.74
2019-04-10T22:55:38.061Z,14.60
2019-04-10T22:58:09.002Z,14.48
2019-04-10T23:00:39.838Z,14.56
2019-04-10T23:03:11.394Z,14.56
2019-04-10T23:05:44.755Z,14.45
2019-04-10T23:08:15.617Z,14.36
2019-04-10T23:10:45.882Z,14.38
2019-04-10T23:13:18.040Z,14.26
2019-04-10T23:15:51.465Z,14.43
2019-04-10T23:18:22.087Z,14.49
2019-04-10T23:20:54.696Z,14.35
2019-04-10T23:23:25.585Z,14.43
2019-04-10T23:25:58.483Z,14.22
2019-04-10T23:28:28.781Z,14.12
2019-04-10T23:30:59.456Z,14.26
2019-04-10T23:33:30.192Z,14.23
2019-04-10T23:36:02.132Z,14.14
2019-04-10T23:38:33.251Z,14.13
2019-04-10T23:41:05.368Z,14.20
2019-04-10T23:43:36.352Z,14.15
2019-04-10T23:46:08.356Z,13.96
2019-04-10T23:48:39.492Z,14.17
2019-04-10T23:51:10.659Z,13.96
2019-04-10T23:53:41.973Z,14.09
2019-04-10T23:56:15.588Z,13.95
2019-04-10T23:58:48.056Z,13.94
